Main page
METAR-TAF:

METAR-TAF

Airports :

Antonio Nariño Airport

Pasto, Colombia

latitude: 01-25N, longitude: 077-16W, elevation: 1826 m

Current weather observation

The report was made 56 minutes ago, at 22:00 UTC
Wind 4 kt from the North/Northeast, varying between North/Northwest and Northeast
Temperature 20°C
Humidity 78%
Pressure 1018 hPa
Visibility 10 km or more
Scattered clouds at a height of 2500 ft
Broken clouds at a height of 8000 ft

METAR: SKPS 052200Z 02004KT 340V050 9999 SCT025 BKN080 20/16 Q1018 RMK A3006

Time: 17:56 (22:56 UTC)


TAF: missing

Weather observations and forecasts of more than 4000 airports (METAR and TAF reports).

The available stations are represented by yellow and red dots on the map.

Hover mouse over dot to see the name of the station.

Then click to see weather observations and forecasts.

To change the map : click on the green buttons with a black cross to zoom in, on the green button with a dash to zoom out, or on the green arrows for adjacent maps.


METAR-TAF: